sensor_id;sensor_type;location;lat;lon;timestamp;P1;durP1;ratioP1;P2;durP2;ratioP2
5801;SDS011;2927;49.366;8.530;2023-11-21T00:01:01;10.70;;;2.40;;
5801;SDS011;2927;49.366;8.530;2023-11-21T00:03:29;10.73;;;2.03;;
5801;SDS011;2927;49.366;8.530;2023-11-21T00:05:55;4.80;;;2.00;;
5801;SDS011;2927;49.366;8.530;2023-11-21T00:08:21;5.80;;;1.90;;
5801;SDS011;2927;49.366;8.530;2023-11-21T00:10:46;5.03;;;1.53;;
5801;SDS011;2927;49.366;8.530;2023-11-21T00:13:13;6.40;;;2.47;;
5801;SDS011;2927;49.366;8.530;2023-11-21T00:15:39;4.23;;;1.90;;
5801;SDS011;2927;49.366;8.530;2023-11-21T00:18:05;9.10;;;1.80;;
5801;SDS011;2927;49.366;8.530;2023-11-21T00:20:31;4.60;;;1.50;;
5801;SDS011;2927;49.366;8.530;2023-11-21T00:22:57;5.60;;;1.63;;
5801;SDS011;2927;49.366;8.530;2023-11-21T00:25:22;5.00;;;1.57;;
5801;SDS011;2927;49.366;8.530;2023-11-21T00:27:48;8.73;;;1.70;;
5801;SDS011;2927;49.366;8.530;2023-11-21T00:30:14;4.23;;;1.53;;
5801;SDS011;2927;49.366;8.530;2023-11-21T00:32:41;11.07;;;1.97;;
5801;SDS011;2927;49.366;8.530;2023-11-21T00:35:07;5.10;;;1.23;;
5801;SDS011;2927;49.366;8.530;2023-11-21T00:37:32;9.27;;;1.60;;
5801;SDS011;2927;49.366;8.530;2023-11-21T00:39:58;3.20;;;1.23;;
5801;SDS011;2927;49.366;8.530;2023-11-21T00:42:23;17.63;;;1.70;;
5801;SDS011;2927;49.366;8.530;2023-11-21T00:44:49;7.93;;;1.40;;
5801;SDS011;2927;49.366;8.530;2023-11-21T00:47:15;14.53;;;1.80;;
5801;SDS011;2927;49.366;8.530;2023-11-21T00:49:40;7.13;;;1.27;;
5801;SDS011;2927;49.366;8.530;2023-11-21T00:52:06;6.20;;;1.20;;
5801;SDS011;2927;49.366;8.530;2023-11-21T00:54:32;1.73;;;1.30;;
5801;SDS011;2927;49.366;8.530;2023-11-21T00:56:58;5.50;;;1.43;;
5801;SDS011;2927;49.366;8.530;2023-11-21T00:59:24;11.43;;;1.50;;
5801;SDS011;2927;49.366;8.530;2023-11-21T01:01:49;4.53;;;1.33;;
5801;SDS011;2927;49.366;8.530;2023-11-21T01:04:15;2.67;;;1.40;;
5801;SDS011;2927;49.366;8.530;2023-11-21T01:06:40;3.17;;;1.40;;
5801;SDS011;2927;49.366;8.530;2023-11-21T01:09:06;2.37;;;1.37;;
5801;SDS011;2927;49.366;8.530;2023-11-21T01:11:34;19.97;;;1.77;;
5801;SDS011;2927;49.366;8.530;2023-11-21T01:14:02;5.37;;;1.80;;
5801;SDS011;2927;49.366;8.530;2023-11-21T01:16:28;9.33;;;2.27;;
5801;SDS011;2927;49.366;8.530;2023-11-21T01:18:54;6.70;;;1.87;;
5801;SDS011;2927;49.366;8.530;2023-11-21T01:21:19;8.70;;;2.37;;
5801;SDS011;2927;49.366;8.530;2023-11-21T01:23:45;3.57;;;1.63;;
5801;SDS011;2927;49.366;8.530;2023-11-21T01:26:12;6.03;;;2.20;;
5801;SDS011;2927;49.366;8.530;2023-11-21T01:28:38;6.80;;;2.40;;
5801;SDS011;2927;49.366;8.530;2023-11-21T01:31:03;6.10;;;2.23;;
5801;SDS011;2927;49.366;8.530;2023-11-21T01:33:29;4.73;;;2.07;;
5801;SDS011;2927;49.366;8.530;2023-11-21T01:35:54;5.27;;;2.13;;
5801;SDS011;2927;49.366;8.530;2023-11-21T01:38:20;2.10;;;1.60;;
5801;SDS011;2927;49.366;8.530;2023-11-21T01:40:47;7.00;;;1.57;;
5801;SDS011;2927;49.366;8.530;2023-11-21T01:43:12;7.93;;;1.57;;
5801;SDS011;2927;49.366;8.530;2023-11-21T01:45:38;7.77;;;2.10;;
5801;SDS011;2927;49.366;8.530;2023-11-21T01:48:04;8.20;;;1.73;;
5801;SDS011;2927;49.366;8.530;2023-11-21T01:50:31;4.90;;;1.80;;
5801;SDS011;2927;49.366;8.530;2023-11-21T01:52:58;2.57;;;1.17;;
5801;SDS011;2927;49.366;8.530;2023-11-21T01:55:25;3.70;;;1.27;;
5801;SDS011;2927;49.366;8.530;2023-11-21T01:57:52;2.87;;;1.40;;
5801;SDS011;2927;49.366;8.530;2023-11-21T02:00:18;6.83;;;2.00;;
5801;SDS011;2927;49.366;8.530;2023-11-21T02:02:44;7.23;;;1.03;;
5801;SDS011;2927;49.366;8.530;2023-11-21T02:05:11;7.20;;;1.77;;
5801;SDS011;2927;49.366;8.530;2023-11-21T02:07:40;6.13;;;1.47;;
5801;SDS011;2927;49.366;8.530;2023-11-21T02:10:07;11.83;;;1.10;;
5801;SDS011;2927;49.366;8.530;2023-11-21T02:12:34;3.47;;;1.30;;
5801;SDS011;2927;49.366;8.530;2023-11-21T02:15:02;2.00;;;1.17;;
5801;SDS011;2927;49.366;8.530;2023-11-21T02:17:30;2.00;;;1.10;;
5801;SDS011;2927;49.366;8.530;2023-11-21T02:19:57;2.47;;;1.13;;
5801;SDS011;2927;49.366;8.530;2023-11-21T02:22:23;2.30;;;1.23;;
5801;SDS011;2927;49.366;8.530;2023-11-21T02:24:51;3.73;;;1.00;;
5801;SDS011;2927;49.366;8.530;2023-11-21T02:27:17;5.47;;;1.33;;
5801;SDS011;2927;49.366;8.530;2023-11-21T02:29:46;8.17;;;1.67;;
5801;SDS011;2927;49.366;8.530;2023-11-21T02:32:12;1.73;;;1.33;;
5801;SDS011;2927;49.366;8.530;2023-11-21T02:34:38;6.00;;;1.57;;
5801;SDS011;2927;49.366;8.530;2023-11-21T02:37:04;2.73;;;1.27;;
5801;SDS011;2927;49.366;8.530;2023-11-21T02:39:30;5.67;;;1.17;;
5801;SDS011;2927;49.366;8.530;2023-11-21T02:41:56;2.53;;;1.10;;
5801;SDS011;2927;49.366;8.530;2023-11-21T02:44:22;2.20;;;1.33;;
5801;SDS011;2927;49.366;8.530;2023-11-21T02:46:47;1.20;;;1.00;;
5801;SDS011;2927;49.366;8.530;2023-11-21T02:49:13;3.27;;;1.30;;
5801;SDS011;2927;49.366;8.530;2023-11-21T02:51:38;2.20;;;1.30;;
5801;SDS011;2927;49.366;8.530;2023-11-21T02:54:05;11.83;;;1.70;;
5801;SDS011;2927;49.366;8.530;2023-11-21T02:56:33;3.17;;;1.47;;
5801;SDS011;2927;49.366;8.530;2023-11-21T02:58:59;2.10;;;1.47;;
5801;SDS011;2927;49.366;8.530;2023-11-21T03:01:25;6.93;;;1.00;;
5801;SDS011;2927;49.366;8.530;2023-11-21T03:03:52;3.23;;;1.40;;
5801;SDS011;2927;49.366;8.530;2023-11-21T03:06:18;1.07;;;1.07;;
5801;SDS011;2927;49.366;8.530;2023-11-21T03:08:44;1.37;;;1.27;;
5801;SDS011;2927;49.366;8.530;2023-11-21T03:11:10;12.40;;;1.40;;
5801;SDS011;2927;49.366;8.530;2023-11-21T03:13:37;3.37;;;1.13;;
5801;SDS011;2927;49.366;8.530;2023-11-21T03:16:04;5.10;;;1.50;;
5801;SDS011;2927;49.366;8.530;2023-11-21T03:18:31;1.13;;;0.83;;
5801;SDS011;2927;49.366;8.530;2023-11-21T03:20:57;1.80;;;1.13;;
5801;SDS011;2927;49.366;8.530;2023-11-21T03:23:22;3.50;;;0.97;;
5801;SDS011;2927;49.366;8.530;2023-11-21T03:25:48;1.27;;;1.17;;
5801;SDS011;2927;49.366;8.530;2023-11-21T03:28:13;11.13;;;1.00;;
5801;SDS011;2927;49.366;8.530;2023-11-21T03:30:39;1.13;;;1.03;;
5801;SDS011;2927;49.366;8.530;2023-11-21T03:33:04;3.73;;;1.10;;
5801;SDS011;2927;49.366;8.530;2023-11-21T03:35:30;4.77;;;1.13;;
5801;SDS011;2927;49.366;8.530;2023-11-21T03:37:56;2.77;;;1.20;;
5801;SDS011;2927;49.366;8.530;2023-11-21T03:40:21;2.57;;;0.80;;
5801;SDS011;2927;49.366;8.530;2023-11-21T03:42:47;3.63;;;1.17;;
5801;SDS011;2927;49.366;8.530;2023-11-21T03:45:13;1.33;;;0.90;;
5801;SDS011;2927;49.366;8.530;2023-11-21T03:47:40;5.00;;;1.07;;
5801;SDS011;2927;49.366;8.530;2023-11-21T03:50:09;3.07;;;1.00;;
5801;SDS011;2927;49.366;8.530;2023-11-21T03:52:35;2.70;;;1.23;;
5801;SDS011;2927;49.366;8.530;2023-11-21T03:55:01;2.40;;;0.60;;
5801;SDS011;2927;49.366;8.530;2023-11-21T03:57:27;2.47;;;1.20;;
5801;SDS011;2927;49.366;8.530;2023-11-21T03:59:53;3.03;;;1.33;;
5801;SDS011;2927;49.366;8.530;2023-11-21T04:02:18;1.80;;;1.10;;
5801;SDS011;2927;49.366;8.530;2023-11-21T04:04:44;3.50;;;0.80;;
5801;SDS011;2927;49.366;8.530;2023-11-21T04:07:11;0.90;;;0.90;;
5801;SDS011;2927;49.366;8.530;2023-11-21T04:09:38;1.90;;;1.20;;
5801;SDS011;2927;49.366;8.530;2023-11-21T04:12:04;4.30;;;1.03;;
5801;SDS011;2927;49.366;8.530;2023-11-21T04:14:30;2.57;;;1.57;;
5801;SDS011;2927;49.366;8.530;2023-11-21T04:16:56;2.27;;;1.37;;
5801;SDS011;2927;49.366;8.530;2023-11-21T04:19:22;3.77;;;1.77;;
5801;SDS011;2927;49.366;8.530;2023-11-21T04:21:47;4.57;;;2.20;;
5801;SDS011;2927;49.366;8.530;2023-11-21T04:24:13;2.90;;;1.20;;
5801;SDS011;2927;49.366;8.530;2023-11-21T04:26:39;1.80;;;1.37;;
5801;SDS011;2927;49.366;8.530;2023-11-21T04:29:04;3.23;;;1.30;;
5801;SDS011;2927;49.366;8.530;2023-11-21T04:31:31;5.07;;;1.90;;
5801;SDS011;2927;49.366;8.530;2023-11-21T04:33:57;3.77;;;2.23;;
5801;SDS011;2927;49.366;8.530;2023-11-21T04:36:22;5.80;;;2.53;;
5801;SDS011;2927;49.366;8.530;2023-11-21T04:38:48;1.87;;;1.77;;
5801;SDS011;2927;49.366;8.530;2023-11-21T04:41:13;5.43;;;1.63;;
5801;SDS011;2927;49.366;8.530;2023-11-21T04:43:39;1.63;;;1.53;;
5801;SDS011;2927;49.366;8.530;2023-11-21T04:46:04;6.83;;;1.83;;
5801;SDS011;2927;49.366;8.530;2023-11-21T04:48:31;3.47;;;1.63;;
5801;SDS011;2927;49.366;8.530;2023-11-21T04:50:57;1.03;;;1.03;;
5801;SDS011;2927;49.366;8.530;2023-11-21T04:53:23;5.50;;;1.70;;
5801;SDS011;2927;49.366;8.530;2023-11-21T04:55:48;2.00;;;1.33;;
5801;SDS011;2927;49.366;8.530;2023-11-21T04:58:14;3.93;;;1.00;;
5801;SDS011;2927;49.366;8.530;2023-11-21T05:00:39;3.77;;;1.27;;
5801;SDS011;2927;49.366;8.530;2023-11-21T05:03:06;6.37;;;1.43;;
5801;SDS011;2927;49.366;8.530;2023-11-21T05:05:32;3.60;;;1.63;;
5801;SDS011;2927;49.366;8.530;2023-11-21T05:07:59;2.87;;;1.90;;
5801;SDS011;2927;49.366;8.530;2023-11-21T05:10:24;7.47;;;1.70;;
5801;SDS011;2927;49.366;8.530;2023-11-21T05:12:50;4.63;;;1.40;;
5801;SDS011;2927;49.366;8.530;2023-11-21T05:15:16;2.83;;;1.63;;
5801;SDS011;2927;49.366;8.530;2023-11-21T05:17:44;8.53;;;1.87;;
5801;SDS011;2927;49.366;8.530;2023-11-21T05:20:11;1.30;;;1.27;;
5801;SDS011;2927;49.366;8.530;2023-11-21T05:22:38;2.70;;;1.40;;
5801;SDS011;2927;49.366;8.530;2023-11-21T05:25:05;2.67;;;1.93;;
5801;SDS011;2927;49.366;8.530;2023-11-21T05:27:33;3.07;;;1.60;;
5801;SDS011;2927;49.366;8.530;2023-11-21T05:30:01;4.83;;;1.80;;
5801;SDS011;2927;49.366;8.530;2023-11-21T05:32:27;4.10;;;1.60;;
5801;SDS011;2927;49.366;8.530;2023-11-21T05:34:53;1.83;;;1.67;;
5801;SDS011;2927;49.366;8.530;2023-11-21T05:37:18;4.30;;;1.60;;
5801;SDS011;2927;49.366;8.530;2023-11-21T05:39:44;5.50;;;1.63;;
5801;SDS011;2927;49.366;8.530;2023-11-21T05:42:09;3.00;;;1.93;;
5801;SDS011;2927;49.366;8.530;2023-11-21T05:44:36;2.13;;;1.90;;
5801;SDS011;2927;49.366;8.530;2023-11-21T05:47:06;2.33;;;1.50;;
5801;SDS011;2927;49.366;8.530;2023-11-21T05:49:32;3.03;;;1.93;;
5801;SDS011;2927;49.366;8.530;2023-11-21T05:51:58;6.53;;;1.33;;
5801;SDS011;2927;49.366;8.530;2023-11-21T05:54:24;3.00;;;2.30;;
5801;SDS011;2927;49.366;8.530;2023-11-21T05:56:51;3.50;;;2.20;;
5801;SDS011;2927;49.366;8.530;2023-11-21T05:59:16;2.37;;;1.90;;
5801;SDS011;2927;49.366;8.530;2023-11-21T06:01:42;2.20;;;1.77;;
5801;SDS011;2927;49.366;8.530;2023-11-21T06:04:08;7.93;;;1.83;;
5801;SDS011;2927;49.366;8.530;2023-11-21T06:06:34;2.03;;;1.80;;
5801;SDS011;2927;49.366;8.530;2023-11-21T06:09:00;2.20;;;2.00;;
5801;SDS011;2927;49.366;8.530;2023-11-21T06:11:26;1.77;;;1.67;;
5801;SDS011;2927;49.366;8.530;2023-11-21T06:13:51;1.70;;;1.40;;
5801;SDS011;2927;49.366;8.530;2023-11-21T06:16:18;11.23;;;1.73;;
5801;SDS011;2927;49.366;8.530;2023-11-21T06:18:44;2.57;;;2.07;;
5801;SDS011;2927;49.366;8.530;2023-11-21T06:21:10;2.20;;;1.87;;
5801;SDS011;2927;49.366;8.530;2023-11-21T06:23:36;2.43;;;2.10;;
5801;SDS011;2927;49.366;8.530;2023-11-21T06:26:02;3.10;;;1.70;;
5801;SDS011;2927;49.366;8.530;2023-11-21T06:28:29;2.30;;;2.10;;
5801;SDS011;2927;49.366;8.530;2023-11-21T06:30:55;1.97;;;1.77;;
5801;SDS011;2927;49.366;8.530;2023-11-21T06:33:21;3.57;;;2.00;;
5801;SDS011;2927;49.366;8.530;2023-11-21T06:35:47;3.50;;;2.20;;
5801;SDS011;2927;49.366;8.530;2023-11-21T06:38:12;3.23;;;1.93;;
5801;SDS011;2927;49.366;8.530;2023-11-21T06:40:38;2.43;;;2.23;;
5801;SDS011;2927;49.366;8.530;2023-11-21T06:43:03;2.50;;;2.30;;
5801;SDS011;2927;49.366;8.530;2023-11-21T06:45:31;2.00;;;1.90;;
5801;SDS011;2927;49.366;8.530;2023-11-21T06:47:59;2.57;;;2.37;;
5801;SDS011;2927;49.366;8.530;2023-11-21T06:50:24;6.13;;;2.80;;
5801;SDS011;2927;49.366;8.530;2023-11-21T06:52:50;4.90;;;2.87;;
5801;SDS011;2927;49.366;8.530;2023-11-21T06:55:16;5.80;;;3.60;;
5801;SDS011;2927;49.366;8.530;2023-11-21T06:57:41;7.43;;;3.50;;
5801;SDS011;2927;49.366;8.530;2023-11-21T07:00:08;3.60;;;3.30;;
5801;SDS011;2927;49.366;8.530;2023-11-21T07:02:34;6.03;;;4.63;;
5801;SDS011;2927;49.366;8.530;2023-11-21T07:04:59;9.10;;;5.27;;
5801;SDS011;2927;49.366;8.530;2023-11-21T07:07:25;8.23;;;5.60;;
5801;SDS011;2927;49.366;8.530;2023-11-21T07:09:52;9.90;;;6.03;;
5801;SDS011;2927;49.366;8.530;2023-11-21T07:12:18;7.93;;;6.20;;
5801;SDS011;2927;49.366;8.530;2023-11-21T07:14:43;9.10;;;6.30;;
5801;SDS011;2927;49.366;8.530;2023-11-21T07:17:10;12.70;;;5.97;;
5801;SDS011;2927;49.366;8.530;2023-11-21T07:19:37;16.83;;;8.03;;
5801;SDS011;2927;49.366;8.530;2023-11-21T07:22:03;14.27;;;8.33;;
5801;SDS011;2927;49.366;8.530;2023-11-21T07:24:31;19.93;;;8.50;;
5801;SDS011;2927;49.366;8.530;2023-11-21T07:26:57;10.40;;;6.93;;
5801;SDS011;2927;49.366;8.530;2023-11-21T07:29:23;18.50;;;8.87;;
5801;SDS011;2927;49.366;8.530;2023-11-21T07:31:51;17.80;;;9.03;;
5801;SDS011;2927;49.366;8.530;2023-11-21T07:34:18;16.53;;;9.87;;
5801;SDS011;2927;49.366;8.530;2023-11-21T07:36:44;19.67;;;10.50;;
5801;SDS011;2927;49.366;8.530;2023-11-21T07:39:10;20.47;;;10.00;;
5801;SDS011;2927;49.366;8.530;2023-11-21T07:41:35;15.80;;;9.43;;
5801;SDS011;2927;49.366;8.530;2023-11-21T07:44:03;17.47;;;9.37;;
5801;SDS011;2927;49.366;8.530;2023-11-21T07:46:28;15.03;;;9.07;;
5801;SDS011;2927;49.366;8.530;2023-11-21T07:48:54;18.67;;;9.40;;
5801;SDS011;2927;49.366;8.530;2023-11-21T07:51:20;22.83;;;9.13;;
5801;SDS011;2927;49.366;8.530;2023-11-21T07:53:45;16.23;;;8.63;;
5801;SDS011;2927;49.366;8.530;2023-11-21T07:56:11;20.53;;;9.30;;
5801;SDS011;2927;49.366;8.530;2023-11-21T07:58:37;17.37;;;8.47;;
5801;SDS011;2927;49.366;8.530;2023-11-21T08:01:03;15.77;;;9.00;;
5801;SDS011;2927;49.366;8.530;2023-11-21T08:03:30;16.43;;;9.13;;
5801;SDS011;2927;49.366;8.530;2023-11-21T08:05:56;14.80;;;8.00;;
5801;SDS011;2927;49.366;8.530;2023-11-21T08:08:22;16.83;;;8.77;;
5801;SDS011;2927;49.366;8.530;2023-11-21T08:10:48;17.50;;;9.63;;
5801;SDS011;2927;49.366;8.530;2023-11-21T08:13:21;18.00;;;8.40;;
5801;SDS011;2927;49.366;8.530;2023-11-21T08:15:50;16.87;;;8.97;;
5801;SDS011;2927;49.366;8.530;2023-11-21T08:18:19;16.20;;;7.77;;
5801;SDS011;2927;49.366;8.530;2023-11-21T08:20:44;15.87;;;9.87;;
5801;SDS011;2927;49.366;8.530;2023-11-21T08:23:12;17.50;;;7.80;;
5801;SDS011;2927;49.366;8.530;2023-11-21T08:25:44;11.20;;;7.30;;
5801;SDS011;2927;49.366;8.530;2023-11-21T08:28:10;12.57;;;7.20;;
5801;SDS011;2927;49.366;8.530;2023-11-21T08:30:36;13.40;;;8.10;;
5801;SDS011;2927;49.366;8.530;2023-11-21T08:33:02;12.97;;;7.47;;
5801;SDS011;2927;49.366;8.530;2023-11-21T08:35:28;11.03;;;6.30;;
5801;SDS011;2927;49.366;8.530;2023-11-21T08:37:54;10.63;;;6.47;;
5801;SDS011;2927;49.366;8.530;2023-11-21T08:40:20;9.23;;;5.63;;
5801;SDS011;2927;49.366;8.530;2023-11-21T08:42:46;9.83;;;6.27;;
5801;SDS011;2927;49.366;8.530;2023-11-21T08:45:13;9.93;;;6.50;;
5801;SDS011;2927;49.366;8.530;2023-11-21T08:47:42;11.70;;;7.13;;
5801;SDS011;2927;49.366;8.530;2023-11-21T08:50:09;14.13;;;7.53;;
5801;SDS011;2927;49.366;8.530;2023-11-21T08:52:34;8.30;;;5.73;;
5801;SDS011;2927;49.366;8.530;2023-11-21T08:55:02;11.80;;;6.63;;
5801;SDS011;2927;49.366;8.530;2023-11-21T08:57:32;7.63;;;5.43;;
5801;SDS011;2927;49.366;8.530;2023-11-21T09:00:02;18.13;;;5.90;;
5801;SDS011;2927;49.366;8.530;2023-11-21T09:02:30;8.30;;;6.30;;
5801;SDS011;2927;49.366;8.530;2023-11-21T09:04:58;6.33;;;4.73;;
5801;SDS011;2927;49.366;8.530;2023-11-21T09:07:24;6.53;;;5.10;;
5801;SDS011;2927;49.366;8.530;2023-11-21T09:09:50;8.20;;;5.50;;
5801;SDS011;2927;49.366;8.530;2023-11-21T09:12:16;6.93;;;4.67;;
5801;SDS011;2927;49.366;8.530;2023-11-21T09:14:42;4.47;;;3.60;;
5801;SDS011;2927;49.366;8.530;2023-11-21T09:17:09;5.20;;;4.03;;
5801;SDS011;2927;49.366;8.530;2023-11-21T09:19:39;4.70;;;3.70;;
5801;SDS011;2927;49.366;8.530;2023-11-21T09:22:05;4.90;;;4.07;;
5801;SDS011;2927;49.366;8.530;2023-11-21T09:24:31;4.60;;;4.20;;
5801;SDS011;2927;49.366;8.530;2023-11-21T09:26:57;5.07;;;4.23;;
5801;SDS011;2927;49.366;8.530;2023-11-21T09:29:23;4.87;;;4.37;;
5801;SDS011;2927;49.366;8.530;2023-11-21T09:31:48;4.07;;;3.47;;
5801;SDS011;2927;49.366;8.530;2023-11-21T09:34:16;5.20;;;2.90;;
5801;SDS011;2927;49.366;8.530;2023-11-21T09:36:44;4.37;;;3.07;;
5801;SDS011;2927;49.366;8.530;2023-11-21T09:39:10;4.00;;;2.30;;
5801;SDS011;2927;49.366;8.530;2023-11-21T09:41:52;4.00;;;3.40;;
5801;SDS011;2927;49.366;8.530;2023-11-21T09:44:35;4.10;;;3.43;;
5801;SDS011;2927;49.366;8.530;2023-11-21T09:47:07;2.80;;;2.67;;
5801;SDS011;2927;49.366;8.530;2023-11-21T09:49:38;2.43;;;2.00;;
5801;SDS011;2927;49.366;8.530;2023-11-21T09:52:05;2.20;;;1.70;;
5801;SDS011;2927;49.366;8.530;2023-11-21T09:54:37;1.60;;;1.50;;
5801;SDS011;2927;49.366;8.530;2023-11-21T09:57:03;4.17;;;1.67;;
5801;SDS011;2927;49.366;8.530;2023-11-21T09:59:31;1.77;;;1.60;;
5801;SDS011;2927;49.366;8.530;2023-11-21T10:01:57;2.57;;;2.37;;
5801;SDS011;2927;49.366;8.530;2023-11-21T10:04:23;2.50;;;2.30;;
5801;SDS011;2927;49.366;8.530;2023-11-21T10:06:50;1.87;;;1.73;;
5801;SDS011;2927;49.366;8.530;2023-11-21T10:09:18;4.03;;;2.60;;
5801;SDS011;2927;49.366;8.530;2023-11-21T10:11:45;4.53;;;2.70;;
5801;SDS011;2927;49.366;8.530;2023-11-21T10:14:12;4.00;;;2.50;;
5801;SDS011;2927;49.366;8.530;2023-11-21T10:16:39;6.30;;;3.00;;
5801;SDS011;2927;49.366;8.530;2023-11-21T10:19:06;4.83;;;2.53;;
5801;SDS011;2927;49.366;8.530;2023-11-21T10:21:35;4.43;;;2.67;;
5801;SDS011;2927;49.366;8.530;2023-11-21T10:24:03;2.60;;;2.40;;
5801;SDS011;2927;49.366;8.530;2023-11-21T10:26:29;3.00;;;2.80;;
5801;SDS011;2927;49.366;8.530;2023-11-21T10:29:00;3.43;;;2.73;;
5801;SDS011;2927;49.366;8.530;2023-11-21T10:31:30;4.63;;;3.20;;
5801;SDS011;2927;49.366;8.530;2023-11-21T10:36:40;4.07;;;3.70;;
5801;SDS011;2927;49.366;8.530;2023-11-21T10:39:06;5.60;;;4.03;;
5801;SDS011;2927;49.366;8.530;2023-11-21T10:41:32;6.90;;;4.10;;
5801;SDS011;2927;49.366;8.530;2023-11-21T10:43:57;6.97;;;5.13;;
5801;SDS011;2927;49.366;8.530;2023-11-21T10:46:23;6.73;;;4.70;;
5801;SDS011;2927;49.366;8.530;2023-11-21T10:48:54;9.03;;;5.80;;
5801;SDS011;2927;49.366;8.530;2023-11-21T10:51:21;8.37;;;5.83;;
5801;SDS011;2927;49.366;8.530;2023-11-21T10:53:46;9.03;;;5.67;;
5801;SDS011;2927;49.366;8.530;2023-11-21T10:56:13;10.97;;;6.00;;
5801;SDS011;2927;49.366;8.530;2023-11-21T10:58:44;7.17;;;5.53;;
5801;SDS011;2927;49.366;8.530;2023-11-21T11:01:10;13.83;;;6.90;;
5801;SDS011;2927;49.366;8.530;2023-11-21T11:03:39;12.50;;;6.90;;
5801;SDS011;2927;49.366;8.530;2023-11-21T11:06:06;10.00;;;6.60;;
5801;SDS011;2927;49.366;8.530;2023-11-21T11:08:36;15.07;;;7.47;;
5801;SDS011;2927;49.366;8.530;2023-11-21T11:11:03;11.33;;;6.90;;
5801;SDS011;2927;49.366;8.530;2023-11-21T11:13:32;19.80;;;7.47;;
5801;SDS011;2927;49.366;8.530;2023-11-21T11:15:59;9.77;;;6.83;;
5801;SDS011;2927;49.366;8.530;2023-11-21T11:18:26;9.60;;;5.93;;
5801;SDS011;2927;49.366;8.530;2023-11-21T11:21:01;8.07;;;5.40;;
5801;SDS011;2927;49.366;8.530;2023-11-21T11:24:02;9.67;;;5.50;;
5801;SDS011;2927;49.366;8.530;2023-11-21T11:29:44;11.60;;;5.37;;
5801;SDS011;2927;49.366;8.530;2023-11-21T11:38:06;9.93;;;5.47;;
5801;SDS011;2927;49.366;8.530;2023-11-21T11:41:06;6.93;;;4.70;;
5801;SDS011;2927;49.366;8.530;2023-11-21T11:43:27;5.23;;;4.17;;
5801;SDS011;2927;49.366;8.530;2023-11-21T11:45:56;8.47;;;4.40;;
5801;SDS011;2927;49.366;8.530;2023-11-21T11:48:28;8.93;;;4.70;;
5801;SDS011;2927;49.366;8.530;2023-11-21T11:51:01;7.23;;;5.00;;
5801;SDS011;2927;49.366;8.530;2023-11-21T11:53:39;11.80;;;5.13;;
5801;SDS011;2927;49.366;8.530;2023-11-21T11:56:21;12.53;;;4.87;;
5801;SDS011;2927;49.366;8.530;2023-11-21T11:58:56;11.07;;;5.10;;
5801;SDS011;2927;49.366;8.530;2023-11-21T12:01:24;5.77;;;4.17;;
5801;SDS011;2927;49.366;8.530;2023-11-21T12:06:36;5.53;;;3.83;;
5801;SDS011;2927;49.366;8.530;2023-11-21T12:09:02;4.20;;;3.60;;
5801;SDS011;2927;49.366;8.530;2023-11-21T12:11:31;4.43;;;3.90;;
5801;SDS011;2927;49.366;8.530;2023-11-21T12:13:57;6.60;;;4.50;;
5801;SDS011;2927;49.366;8.530;2023-11-21T12:16:24;5.37;;;3.90;;
5801;SDS011;2927;49.366;8.530;2023-11-21T12:18:52;7.40;;;4.83;;
5801;SDS011;2927;49.366;8.530;2023-11-21T12:21:19;5.20;;;3.47;;
5801;SDS011;2927;49.366;8.530;2023-11-21T12:23:45;4.43;;;3.50;;
5801;SDS011;2927;49.366;8.530;2023-11-21T12:26:12;7.20;;;4.03;;
5801;SDS011;2927;49.366;8.530;2023-11-21T12:28:38;9.60;;;4.13;;
5801;SDS011;2927;49.366;8.530;2023-11-21T12:31:04;9.10;;;4.00;;
5801;SDS011;2927;49.366;8.530;2023-11-21T12:33:31;7.03;;;4.57;;
5801;SDS011;2927;49.366;8.530;2023-11-21T12:36:00;7.93;;;4.60;;
5801;SDS011;2927;49.366;8.530;2023-11-21T12:38:33;8.67;;;5.40;;
5801;SDS011;2927;49.366;8.530;2023-11-21T12:41:00;7.90;;;4.10;;
5801;SDS011;2927;49.366;8.530;2023-11-21T12:43:25;4.60;;;3.63;;
5801;SDS011;2927;49.366;8.530;2023-11-21T12:46:03;10.13;;;4.73;;
5801;SDS011;2927;49.366;8.530;2023-11-21T12:48:34;13.43;;;7.43;;
5801;SDS011;2927;49.366;8.530;2023-11-21T12:51:02;11.17;;;4.90;;
5801;SDS011;2927;49.366;8.530;2023-11-21T12:53:28;9.17;;;5.10;;
5801;SDS011;2927;49.366;8.530;2023-11-21T12:56:01;9.30;;;5.23;;
5801;SDS011;2927;49.366;8.530;2023-11-21T12:58:28;7.90;;;4.90;;
5801;SDS011;2927;49.366;8.530;2023-11-21T13:00:54;7.40;;;4.90;;
5801;SDS011;2927;49.366;8.530;2023-11-21T13:03:24;6.70;;;4.97;;
5801;SDS011;2927;49.366;8.530;2023-11-21T13:05:50;6.63;;;4.00;;
5801;SDS011;2927;49.366;8.530;2023-11-21T13:08:20;6.17;;;4.20;;
5801;SDS011;2927;49.366;8.530;2023-11-21T13:10:49;3.27;;;2.97;;
5801;SDS011;2927;49.366;8.530;2023-11-21T13:13:25;5.10;;;3.27;;
5801;SDS011;2927;49.366;8.530;2023-11-21T13:15:54;4.77;;;3.70;;
5801;SDS011;2927;49.366;8.530;2023-11-21T13:18:30;2.60;;;2.27;;
5801;SDS011;2927;49.366;8.530;2023-11-21T13:21:00;5.20;;;3.37;;
5801;SDS011;2927;49.366;8.530;2023-11-21T13:23:42;8.10;;;2.90;;
5801;SDS011;2927;49.366;8.530;2023-11-21T13:26:08;5.63;;;2.83;;
5801;SDS011;2927;49.366;8.530;2023-11-21T13:28:34;2.73;;;2.53;;
5801;SDS011;2927;49.366;8.530;2023-11-21T13:31:02;3.30;;;2.33;;
5801;SDS011;2927;49.366;8.530;2023-11-21T13:33:45;2.50;;;2.30;;
5801;SDS011;2927;49.366;8.530;2023-11-21T13:36:19;4.27;;;2.50;;
5801;SDS011;2927;49.366;8.530;2023-11-21T13:38:47;12.00;;;2.90;;
5801;SDS011;2927;49.366;8.530;2023-11-21T13:41:17;2.90;;;2.33;;
5801;SDS011;2927;49.366;8.530;2023-11-21T13:43:43;7.80;;;2.90;;
5801;SDS011;2927;49.366;8.530;2023-11-21T13:46:17;4.27;;;2.90;;
5801;SDS011;2927;49.366;8.530;2023-11-21T13:48:46;5.27;;;2.23;;
5801;SDS011;2927;49.366;8.530;2023-11-21T13:51:18;11.23;;;3.57;;
5801;SDS011;2927;49.366;8.530;2023-11-21T13:53:48;4.90;;;3.13;;
5801;SDS011;2927;49.366;8.530;2023-11-21T13:56:17;3.27;;;2.10;;
5801;SDS011;2927;49.366;8.530;2023-11-21T13:58:48;1.90;;;1.80;;
5801;SDS011;2927;49.366;8.530;2023-11-21T14:01:19;2.50;;;2.30;;
5801;SDS011;2927;49.366;8.530;2023-11-21T14:03:54;2.10;;;1.60;;
5801;SDS011;2927;49.366;8.530;2023-11-21T14:06:27;4.00;;;1.90;;
5801;SDS011;2927;49.366;8.530;2023-11-21T14:08:59;5.27;;;2.00;;
5801;SDS011;2927;49.366;8.530;2023-11-21T14:11:30;7.17;;;3.60;;
5801;SDS011;2927;49.366;8.530;2023-11-21T14:13:56;2.47;;;2.10;;
5801;SDS011;2927;49.366;8.530;2023-11-21T14:16:24;5.80;;;3.40;;
5801;SDS011;2927;49.366;8.530;2023-11-21T14:18:49;3.80;;;2.90;;
5801;SDS011;2927;49.366;8.530;2023-11-21T14:21:23;4.07;;;2.90;;
5801;SDS011;2927;49.366;8.530;2023-11-21T14:23:49;3.20;;;2.80;;
5801;SDS011;2927;49.366;8.530;2023-11-21T14:26:14;3.13;;;2.07;;
5801;SDS011;2927;49.366;8.530;2023-11-21T14:28:42;3.40;;;1.90;;
5801;SDS011;2927;49.366;8.530;2023-11-21T14:31:08;7.57;;;3.03;;
5801;SDS011;2927;49.366;8.530;2023-11-21T14:33:38;4.00;;;2.37;;
5801;SDS011;2927;49.366;8.530;2023-11-21T14:36:05;4.27;;;2.10;;
5801;SDS011;2927;49.366;8.530;2023-11-21T14:38:34;7.10;;;2.23;;
5801;SDS011;2927;49.366;8.530;2023-11-21T14:41:04;4.57;;;2.70;;
5801;SDS011;2927;49.366;8.530;2023-11-21T14:43:33;4.27;;;2.40;;
5801;SDS011;2927;49.366;8.530;2023-11-21T14:46:00;4.63;;;2.37;;
5801;SDS011;2927;49.366;8.530;2023-11-21T14:48:28;12.80;;;2.17;;
5801;SDS011;2927;49.366;8.530;2023-11-21T14:51:12;8.57;;;2.70;;
5801;SDS011;2927;49.366;8.530;2023-11-21T14:53:58;3.90;;;2.90;;
5801;SDS011;2927;49.366;8.530;2023-11-21T14:56:35;5.40;;;2.97;;
5801;SDS011;2927;49.366;8.530;2023-11-21T14:59:03;5.57;;;3.10;;
5801;SDS011;2927;49.366;8.530;2023-11-21T15:01:37;5.03;;;2.87;;
5801;SDS011;2927;49.366;8.530;2023-11-21T15:04:21;11.73;;;3.60;;
5801;SDS011;2927;49.366;8.530;2023-11-21T15:07:01;5.17;;;3.47;;
5801;SDS011;2927;49.366;8.530;2023-11-21T15:09:28;7.13;;;3.37;;
5801;SDS011;2927;49.366;8.530;2023-11-21T15:11:56;11.63;;;4.07;;
5801;SDS011;2927;49.366;8.530;2023-11-21T15:14:28;10.93;;;3.97;;
5801;SDS011;2927;49.366;8.530;2023-11-21T15:16:57;6.17;;;4.07;;
5801;SDS011;2927;49.366;8.530;2023-11-21T15:19:25;6.57;;;4.10;;
5801;SDS011;2927;49.366;8.530;2023-11-21T15:21:51;8.40;;;3.77;;
5801;SDS011;2927;49.366;8.530;2023-11-21T15:24:17;10.20;;;4.00;;
5801;SDS011;2927;49.366;8.530;2023-11-21T15:26:42;7.90;;;3.93;;
5801;SDS011;2927;49.366;8.530;2023-11-21T15:29:08;6.90;;;4.10;;